createdAt,value
2017-08-29T00:01:26.354Z,50.64
2017-08-29T00:03:53.962Z,50.87
2017-08-29T00:06:21.507Z,51.11
2017-08-29T00:08:49.080Z,50.84
2017-08-29T00:11:16.605Z,50.83
2017-08-29T00:13:44.176Z,51.00
2017-08-29T00:16:11.756Z,50.74
2017-08-29T00:18:40.078Z,51.40
2017-08-29T00:21:07.680Z,51.03
2017-08-29T00:23:35.279Z,51.26
2017-08-29T00:26:02.851Z,51.39
2017-08-29T00:28:30.457Z,51.60
2017-08-29T00:30:58.133Z,51.85
2017-08-29T00:33:26.948Z,51.89
2017-08-29T00:35:55.190Z,51.95
2017-08-29T00:38:22.818Z,51.70
2017-08-29T00:40:50.396Z,51.66
2017-08-29T00:43:17.961Z,51.99
2017-08-29T00:45:46.119Z,52.06
2017-08-29T00:48:14.316Z,52.60
2017-08-29T00:50:42.726Z,51.32
2017-08-29T00:53:10.320Z,51.36
2017-08-29T00:55:37.871Z,51.52
2017-08-29T00:58:05.417Z,51.23
2017-08-29T01:00:33.065Z,50.66
2017-08-29T01:03:00.815Z,50.61
2017-08-29T01:05:28.633Z,50.60
2017-08-29T01:07:56.423Z,50.42
2017-08-29T01:10:24.287Z,50.30
2017-08-29T01:12:52.694Z,50.35
2017-08-29T01:15:20.300Z,49.94
2017-08-29T01:17:47.867Z,50.02
2017-08-29T01:20:15.475Z,49.70
2017-08-29T01:22:43.976Z,49.67
2017-08-29T01:25:11.725Z,49.74
2017-08-29T01:27:39.577Z,49.63
2017-08-29T01:30:07.514Z,49.73
2017-08-29T01:32:35.980Z,49.36
2017-08-29T01:35:03.629Z,49.64
2017-08-29T01:37:31.270Z,49.57
2017-08-29T01:39:58.885Z,49.35
2017-08-29T01:42:26.453Z,49.62
2017-08-29T01:44:56.901Z,49.51
2017-08-29T01:47:24.491Z,49.31
2017-08-29T01:49:52.667Z,49.16
2017-08-29T01:52:20.282Z,49.36
2017-08-29T01:54:47.886Z,49.34
2017-08-29T01:57:15.636Z,49.40
2017-08-29T01:59:43.328Z,49.24
2017-08-29T02:02:11.873Z,49.49
2017-08-29T02:04:39.698Z,49.20
2017-08-29T02:07:07.318Z,49.28
2017-08-29T02:09:34.968Z,48.95
2017-08-29T02:12:02.531Z,48.92
2017-08-29T02:14:30.471Z,48.91
2017-08-29T02:16:58.550Z,48.89
2017-08-29T02:19:26.136Z,49.10
2017-08-29T02:21:53.806Z,49.51
2017-08-29T02:24:21.437Z,49.45
2017-08-29T02:26:49.000Z,50.93
2017-08-29T02:29:16.543Z,50.35
2017-08-29T02:31:44.268Z,51.56
2017-08-29T02:34:11.844Z,51.13
2017-08-29T02:36:39.492Z,50.63
2017-08-29T02:39:07.085Z,50.52
2017-08-29T02:41:34.625Z,50.54
2017-08-29T02:44:02.171Z,50.43
2017-08-29T02:46:29.790Z,50.06
2017-08-29T02:48:57.329Z,50.49
2017-08-29T02:51:24.893Z,50.39
2017-08-29T02:53:52.496Z,50.02
2017-08-29T02:56:20.043Z,50.11
2017-08-29T02:58:47.824Z,49.96
2017-08-29T03:01:15.418Z,50.38
2017-08-29T03:03:42.965Z,50.56
2017-08-29T03:06:10.545Z,50.36
2017-08-29T03:08:38.143Z,50.38
2017-08-29T03:11:05.681Z,50.40
2017-08-29T03:13:33.240Z,50.52
2017-08-29T03:16:01.017Z,50.22
2017-08-29T03:18:28.679Z,49.85
2017-08-29T03:20:56.565Z,49.86
2017-08-29T03:23:24.163Z,49.46
2017-08-29T03:25:51.984Z,49.26
2017-08-29T03:28:19.605Z,49.18
2017-08-29T03:30:47.200Z,49.14
2017-08-29T03:33:14.941Z,48.76
2017-08-29T03:35:42.523Z,48.80
2017-08-29T03:38:10.120Z,48.80
2017-08-29T03:40:37.909Z,48.80
2017-08-29T03:43:05.447Z,48.69
2017-08-29T03:45:33.095Z,48.71
2017-08-29T03:48:00.674Z,48.51
2017-08-29T03:50:28.244Z,48.07
2017-08-29T03:52:55.821Z,47.99
2017-08-29T03:55:23.373Z,47.91
2017-08-29T03:57:50.956Z,47.82
2017-08-29T04:00:18.570Z,47.86
2017-08-29T04:02:46.165Z,47.83
2017-08-29T04:05:13.826Z,47.74
2017-08-29T04:07:41.388Z,47.84
2017-08-29T04:10:08.954Z,47.72
2017-08-29T04:12:36.593Z,47.64
2017-08-29T04:15:04.674Z,47.96
2017-08-29T04:17:32.513Z,48.35
2017-08-29T04:20:00.247Z,48.62
2017-08-29T04:22:27.800Z,49.11
2017-08-29T04:24:57.076Z,49.61
2017-08-29T04:27:24.735Z,49.51
2017-08-29T04:29:52.384Z,49.93
2017-08-29T04:32:20.023Z,50.50
2017-08-29T04:34:47.667Z,50.26
2017-08-29T04:37:15.441Z,50.65
2017-08-29T04:39:43.256Z,51.03
2017-08-29T04:42:10.838Z,51.61
2017-08-29T04:44:38.653Z,52.19
2017-08-29T04:47:06.286Z,54.00
2017-08-29T04:49:33.979Z,50.58
2017-08-29T04:52:01.612Z,50.93
2017-08-29T04:54:30.096Z,52.22
2017-08-29T04:56:57.799Z,52.77
2017-08-29T04:59:25.852Z,54.17
2017-08-29T05:01:53.759Z,55.05
2017-08-29T05:04:21.411Z,55.93
2017-08-29T05:06:49.027Z,57.04
2017-08-29T05:09:16.630Z,57.90
2017-08-29T05:11:44.377Z,58.27
2017-08-29T05:14:11.943Z,58.88
2017-08-29T05:16:39.536Z,59.07
2017-08-29T05:19:07.116Z,60.22
2017-08-29T05:21:34.644Z,61.69
2017-08-29T05:24:02.217Z,61.71
2017-08-29T05:26:29.726Z,62.94
2017-08-29T05:28:57.561Z,62.69
2017-08-29T05:31:25.193Z,61.79
2017-08-29T05:33:52.737Z,62.06
2017-08-29T05:36:20.322Z,61.63
2017-08-29T05:38:47.905Z,60.85
2017-08-29T05:41:15.773Z,61.59
2017-08-29T05:43:43.280Z,61.83
2017-08-29T05:46:10.864Z,63.23
2017-08-29T05:48:38.412Z,64.17
2017-08-29T05:51:05.979Z,63.24
2017-08-29T05:53:33.580Z,62.35
2017-08-29T05:56:01.154Z,62.84
2017-08-29T05:58:28.760Z,62.47
2017-08-29T06:00:56.472Z,61.11
2017-08-29T06:03:24.247Z,59.38
2017-08-29T06:05:51.776Z,59.95
2017-08-29T06:08:19.412Z,59.51
2017-08-29T06:10:46.972Z,59.21
2017-08-29T06:13:14.544Z,59.07
2017-08-29T06:15:42.139Z,59.39
2017-08-29T06:18:10.212Z,59.36
2017-08-29T06:20:37.973Z,58.64
2017-08-29T06:23:05.534Z,59.30
2017-08-29T06:25:33.089Z,58.77
2017-08-29T06:28:00.837Z,59.50
2017-08-29T06:30:28.447Z,58.51
2017-08-29T06:32:56.607Z,58.34
2017-08-29T06:35:24.387Z,57.89
2017-08-29T06:37:51.946Z,57.76
2017-08-29T06:40:19.560Z,56.66
2017-08-29T06:42:47.097Z,56.41
2017-08-29T06:45:14.665Z,56.69
2017-08-29T06:47:42.197Z,57.25
2017-08-29T06:50:09.751Z,57.58
2017-08-29T06:52:37.396Z,58.05
2017-08-29T06:55:04.953Z,56.59
2017-08-29T06:57:32.717Z,55.10
2017-08-29T07:00:00.850Z,53.46
2017-08-29T07:02:29.560Z,52.37
2017-08-29T07:04:57.819Z,50.39
2017-08-29T07:10:37.495Z,46.75
2017-08-29T07:13:08.907Z,43.00
2017-08-29T07:18:16.058Z,41.64
2017-08-29T07:20:50.911Z,40.47
2017-08-29T07:23:24.253Z,40.72
2017-08-29T07:25:53.617Z,40.28
2017-08-29T07:28:21.883Z,39.02
2017-08-29T07:30:49.468Z,37.64
2017-08-29T07:33:25.612Z,36.97
2017-08-29T07:35:53.415Z,36.63
2017-08-29T07:38:21.072Z,36.75
2017-08-29T07:40:48.665Z,35.30
2017-08-29T07:43:17.002Z,34.56
2017-08-29T07:45:45.206Z,34.67
2017-08-29T07:48:12.883Z,32.59
2017-08-29T07:50:41.111Z,33.36
2017-08-29T07:53:09.479Z,33.85
2017-08-29T07:55:37.085Z,33.74
2017-08-29T07:58:05.643Z,32.07
2017-08-29T08:00:34.957Z,31.94
2017-08-29T08:03:02.498Z,33.03
2017-08-29T08:05:30.198Z,31.69
2017-08-29T08:07:57.826Z,30.99
2017-08-29T08:10:25.664Z,30.55
2017-08-29T08:12:56.731Z,32.43
2017-08-29T08:15:24.418Z,34.13
2017-08-29T08:17:52.740Z,34.79
2017-08-29T08:20:21.225Z,33.02
2017-08-29T08:22:48.927Z,32.63
2017-08-29T08:25:16.523Z,31.75
2017-08-29T08:27:44.255Z,32.31
2017-08-29T08:30:11.871Z,32.84
2017-08-29T08:32:39.476Z,32.40
2017-08-29T08:35:07.160Z,32.08
2017-08-29T08:37:34.780Z,32.02
2017-08-29T08:40:02.412Z,30.90
2017-08-29T08:42:29.972Z,32.46
2017-08-29T08:44:57.622Z,32.52
2017-08-29T08:47:25.256Z,31.83
2017-08-29T08:49:52.924Z,32.01
2017-08-29T08:52:20.601Z,31.95
2017-08-29T08:54:48.200Z,31.40
2017-08-29T08:57:15.917Z,31.76
2017-08-29T08:59:43.568Z,31.14
2017-08-29T09:02:11.130Z,30.62
2017-08-29T09:04:38.773Z,30.63
2017-08-29T09:07:06.390Z,31.09
2017-08-29T09:09:34.161Z,31.81
2017-08-29T09:12:01.793Z,32.58
2017-08-29T09:14:29.367Z,32.21
2017-08-29T09:16:57.046Z,31.93
2017-08-29T09:19:24.885Z,31.19
2017-08-29T09:21:52.565Z,31.30
2017-08-29T09:24:20.413Z,31.07
2017-08-29T09:26:47.985Z,31.60
2017-08-29T09:29:15.581Z,32.22
2017-08-29T09:31:43.207Z,33.51
2017-08-29T09:34:10.792Z,33.35
2017-08-29T09:36:39.120Z,32.82
2017-08-29T09:39:06.939Z,31.98
2017-08-29T09:41:34.722Z,32.97
2017-08-29T09:44:02.294Z,32.92
2017-08-29T09:46:29.892Z,34.43
2017-08-29T09:48:57.651Z,34.84
2017-08-29T09:51:25.232Z,33.92
2017-08-29T09:53:52.849Z,34.17
2017-08-29T09:56:20.657Z,35.36
2017-08-29T09:58:48.245Z,35.04
2017-08-29T10:01:15.880Z,35.44
2017-08-29T10:03:43.634Z,37.09
2017-08-29T10:06:11.401Z,39.77
2017-08-29T10:08:39.027Z,40.77
2017-08-29T10:11:06.613Z,40.72
2017-08-29T10:13:34.211Z,40.50
2017-08-29T10:16:01.792Z,40.82
2017-08-29T10:18:29.343Z,41.29
2017-08-29T10:20:57.490Z,41.13
2017-08-29T10:23:25.295Z,41.40
2017-08-29T10:25:52.841Z,43.38
2017-08-29T10:28:20.723Z,45.42
2017-08-29T10:30:48.313Z,48.59
2017-08-29T10:33:16.115Z,51.93
2017-08-29T10:35:43.710Z,52.64
2017-08-29T10:38:11.333Z,55.18
2017-08-29T10:40:38.878Z,55.20
2017-08-29T10:43:06.468Z,57.15
2017-08-29T10:45:34.116Z,56.95
2017-08-29T10:48:02.055Z,58.92
2017-08-29T10:50:29.821Z,58.40
2017-08-29T10:52:57.423Z,59.83
2017-08-29T10:55:24.991Z,59.74
2017-08-29T10:57:52.578Z,60.38
2017-08-29T11:00:20.277Z,61.38
2017-08-29T11:02:47.830Z,61.28
2017-08-29T11:05:15.407Z,60.93
2017-08-29T11:07:42.993Z,60.26
2017-08-29T11:10:10.548Z,58.57
2017-08-29T11:12:38.121Z,55.92
2017-08-29T11:15:05.855Z,56.21
2017-08-29T11:17:33.421Z,56.29
2017-08-29T11:20:01.006Z,57.72
2017-08-29T11:22:28.630Z,59.38
2017-08-29T11:24:56.242Z,61.00
2017-08-29T11:27:23.874Z,60.52
2017-08-29T11:29:51.729Z,62.25
2017-08-29T11:32:19.332Z,59.34
2017-08-29T11:34:46.947Z,60.47
2017-08-29T11:37:14.590Z,61.71
2017-08-29T11:39:42.227Z,61.22
2017-08-29T11:42:09.795Z,60.47
2017-08-29T11:44:37.312Z,60.52
2017-08-29T11:47:04.889Z,59.58
2017-08-29T11:49:32.655Z,59.48
2017-08-29T11:52:00.205Z,53.92
2017-08-29T11:54:27.796Z,52.98
2017-08-29T11:56:55.353Z,54.36
2017-08-29T11:59:22.991Z,55.07
2017-08-29T12:01:50.622Z,54.55
2017-08-29T12:04:18.447Z,55.25
2017-08-29T12:06:46.251Z,55.05
2017-08-29T12:09:14.053Z,56.19
2017-08-29T12:11:41.721Z,53.21
2017-08-29T12:14:09.317Z,53.61
2017-08-29T12:16:37.187Z,54.10
2017-08-29T12:19:04.943Z,53.83
2017-08-29T12:21:32.966Z,52.75
2017-08-29T12:24:00.551Z,52.47
2017-08-29T12:26:28.171Z,52.19
2017-08-29T12:28:55.786Z,52.41
2017-08-29T12:31:23.615Z,51.61
2017-08-29T12:33:51.505Z,52.85
2017-08-29T12:36:19.062Z,52.79
2017-08-29T12:38:46.686Z,53.25
2017-08-29T12:41:14.442Z,53.21
2017-08-29T12:43:42.207Z,53.46
2017-08-29T12:46:10.705Z,54.04
2017-08-29T12:48:38.764Z,54.44
2017-08-29T12:51:07.092Z,54.48
2017-08-29T12:53:34.687Z,54.37
2017-08-29T12:56:02.258Z,55.03
2017-08-29T12:58:29.824Z,55.71
2017-08-29T13:00:57.445Z,56.33
2017-08-29T13:03:25.070Z,56.02
2017-08-29T13:05:52.655Z,55.87
2017-08-29T13:08:21.028Z,56.84
2017-08-29T13:10:49.677Z,55.90
2017-08-29T13:13:17.207Z,56.14
2017-08-29T13:15:45.004Z,55.31
2017-08-29T13:18:12.568Z,55.47
2017-08-29T13:20:40.182Z,54.40
2017-08-29T13:23:07.760Z,53.28
2017-08-29T13:25:35.363Z,53.02
2017-08-29T13:28:03.728Z,53.47
2017-08-29T13:30:32.980Z,53.81
2017-08-29T13:33:00.732Z,54.35
2017-08-29T13:35:28.289Z,55.23
2017-08-29T13:37:55.883Z,55.86
2017-08-29T13:40:23.458Z,56.50
2017-08-29T13:42:51.644Z,57.22
2017-08-29T13:45:19.299Z,57.28
2017-08-29T13:47:47.085Z,56.42
2017-08-29T13:50:14.887Z,56.43
2017-08-29T13:52:43.033Z,57.40
2017-08-29T13:55:10.569Z,57.55
2017-08-29T13:57:38.237Z,57.60
2017-08-29T14:00:07.380Z,56.99
2017-08-29T14:02:35.019Z,56.06
2017-08-29T14:05:02.699Z,55.19
2017-08-29T14:07:30.315Z,56.42
2017-08-29T14:09:57.840Z,56.36
2017-08-29T14:12:25.493Z,55.80
2017-08-29T14:14:53.227Z,55.81
2017-08-29T14:17:20.804Z,56.08
2017-08-29T14:19:49.486Z,55.51
2017-08-29T14:22:18.711Z,55.17
2017-08-29T14:24:46.386Z,55.34
2017-08-29T14:27:13.997Z,55.81
2017-08-29T14:29:41.587Z,55.52
2017-08-29T14:32:09.213Z,55.05
2017-08-29T14:34:36.841Z,55.56
2017-08-29T14:37:04.959Z,55.46
2017-08-29T14:39:32.605Z,55.54
2017-08-29T14:42:01.457Z,58.10
2017-08-29T14:44:29.923Z,53.51
2017-08-29T14:47:10.566Z,52.69
2017-08-29T14:49:40.237Z,50.98
2017-08-29T14:52:52.217Z,50.44
2017-08-29T14:55:19.972Z,52.34
2017-08-29T14:57:47.647Z,52.28
2017-08-29T15:00:16.424Z,51.18
2017-08-29T15:02:58.792Z,50.90
2017-08-29T15:05:26.353Z,50.28
2017-08-29T15:08:05.934Z,51.97
2017-08-29T15:10:36.037Z,52.37
2017-08-29T15:13:04.973Z,53.26
2017-08-29T15:15:32.541Z,52.82
2017-08-29T15:18:00.147Z,52.81
2017-08-29T15:20:27.735Z,51.65
2017-08-29T15:23:02.367Z,49.74
2017-08-29T15:25:29.916Z,51.68
2017-08-29T15:27:57.479Z,50.73
2017-08-29T15:33:06.970Z,51.28
2017-08-29T15:35:35.352Z,49.62
2017-08-29T15:38:03.038Z,49.98
2017-08-29T15:40:30.668Z,50.49
2017-08-29T15:42:58.248Z,50.84
2017-08-29T15:45:26.040Z,50.50
2017-08-29T15:47:54.215Z,50.27
2017-08-29T15:50:21.783Z,50.08
2017-08-29T15:52:49.339Z,50.16
2017-08-29T15:55:16.909Z,51.20
2017-08-29T15:57:44.568Z,52.21
2017-08-29T16:00:12.282Z,53.65
2017-08-29T16:02:40.075Z,53.68
2017-08-29T16:05:08.608Z,53.37
2017-08-29T16:07:36.278Z,54.32
2017-08-29T16:10:03.848Z,54.14
2017-08-29T16:12:31.410Z,55.17
2017-08-29T16:14:59.258Z,55.12
2017-08-29T16:17:26.909Z,55.45
2017-08-29T16:19:54.695Z,55.29
2017-08-29T16:22:22.424Z,56.04
2017-08-29T16:24:50.205Z,56.54
2017-08-29T16:27:17.813Z,56.46
2017-08-29T16:29:49.539Z,57.27
2017-08-29T16:32:19.890Z,57.22
2017-08-29T16:34:53.255Z,57.95
2017-08-29T16:37:20.851Z,58.05
2017-08-29T16:39:48.471Z,58.28
2017-08-29T16:42:16.027Z,59.86
2017-08-29T16:44:43.636Z,59.30
2017-08-29T16:47:11.304Z,59.39
2017-08-29T16:49:38.901Z,59.00
2017-08-29T16:52:06.685Z,59.00
2017-08-29T16:54:34.267Z,58.52
2017-08-29T16:57:01.899Z,58.99
2017-08-29T16:59:29.496Z,59.15
2017-08-29T17:01:57.144Z,60.33
2017-08-29T17:04:24.892Z,60.63
2017-08-29T17:06:52.500Z,60.15
2017-08-29T17:09:20.131Z,60.30
2017-08-29T17:11:47.886Z,60.69
2017-08-29T17:14:15.492Z,61.61
2017-08-29T17:16:43.075Z,62.09
2017-08-29T17:19:10.608Z,62.28
2017-08-29T17:21:38.827Z,61.83
2017-08-29T17:24:06.527Z,61.68
2017-08-29T17:26:34.081Z,61.21
2017-08-29T17:29:01.837Z,60.73
2017-08-29T17:31:29.448Z,60.59
2017-08-29T17:33:56.976Z,59.92
2017-08-29T17:36:24.743Z,59.90
2017-08-29T17:38:52.391Z,60.40
2017-08-29T17:41:20.036Z,60.39
2017-08-29T17:43:47.604Z,60.45
2017-08-29T17:46:15.227Z,60.56
2017-08-29T17:48:43.013Z,60.95
2017-08-29T17:51:11.445Z,60.86
2017-08-29T17:53:39.080Z,59.94
2017-08-29T17:56:06.693Z,60.58
2017-08-29T17:58:34.287Z,61.61
2017-08-29T18:01:01.880Z,62.40
2017-08-29T18:03:29.563Z,63.26
2017-08-29T18:05:57.161Z,63.86
2017-08-29T18:08:24.777Z,63.79
2017-08-29T18:10:52.332Z,63.89
2017-08-29T18:13:21.195Z,64.33
2017-08-29T18:15:48.884Z,64.33
2017-08-29T18:18:16.616Z,65.16
2017-08-29T18:20:44.278Z,65.33
2017-08-29T18:23:12.007Z,65.23
2017-08-29T18:25:39.853Z,65.16
2017-08-29T18:28:07.544Z,65.44
2017-08-29T18:30:35.207Z,65.85
2017-08-29T18:33:02.897Z,65.25
2017-08-29T18:35:30.669Z,65.99
2017-08-29T18:37:58.325Z,66.37
2017-08-29T18:40:25.837Z,66.02
2017-08-29T18:42:53.797Z,66.31
2017-08-29T18:45:21.449Z,66.56
2017-08-29T18:47:49.645Z,66.99
2017-08-29T18:50:17.801Z,66.99
2017-08-29T18:52:46.290Z,67.04
2017-08-29T18:55:13.967Z,67.05
2017-08-29T18:57:43.267Z,66.87
2017-08-29T19:00:11.375Z,67.29
2017-08-29T19:02:39.071Z,67.58
2017-08-29T19:05:06.888Z,67.79
2017-08-29T19:07:34.489Z,67.28
2017-08-29T19:10:02.454Z,68.32
2017-08-29T19:12:30.070Z,67.46
2017-08-29T19:14:57.660Z,67.14
2017-08-29T19:17:25.279Z,67.28
2017-08-29T19:19:52.850Z,68.26
2017-08-29T19:22:20.457Z,68.05
2017-08-29T19:24:48.004Z,67.50
2017-08-29T19:27:15.617Z,67.67
2017-08-29T19:29:43.477Z,67.84
2017-08-29T19:32:12.883Z,68.10
2017-08-29T19:34:41.391Z,68.34
2017-08-29T19:37:08.944Z,68.11
2017-08-29T19:39:37.530Z,68.45
2017-08-29T19:42:06.797Z,68.07
2017-08-29T19:44:34.395Z,67.88
2017-08-29T19:47:01.953Z,67.73
2017-08-29T19:49:30.185Z,68.05
2017-08-29T19:51:57.755Z,68.15
2017-08-29T19:54:25.366Z,68.43
2017-08-29T19:56:52.909Z,68.49
2017-08-29T19:59:20.937Z,68.16
2017-08-29T20:01:51.428Z,68.99
2017-08-29T20:04:19.271Z,69.00
2017-08-29T20:06:46.871Z,68.71
2017-08-29T20:09:14.406Z,68.93
2017-08-29T20:11:46.800Z,68.49
2017-08-29T20:14:14.374Z,67.97
2017-08-29T20:16:41.897Z,67.83
2017-08-29T20:19:09.419Z,68.64
2017-08-29T20:21:37.000Z,68.27
2017-08-29T20:24:04.869Z,69.10
2017-08-29T20:26:32.424Z,68.56
2017-08-29T20:29:01.846Z,69.13
2017-08-29T20:31:29.475Z,68.78
2017-08-29T20:33:57.017Z,68.67
2017-08-29T20:36:24.522Z,68.80
2017-08-29T20:38:52.054Z,68.38
2017-08-29T20:41:19.839Z,68.09
2017-08-29T20:43:47.361Z,68.78
2017-08-29T20:46:14.935Z,69.06
2017-08-29T20:48:42.471Z,69.22
2017-08-29T20:51:10.797Z,69.71
2017-08-29T20:53:38.333Z,69.48
2017-08-29T20:56:06.753Z,69.31
2017-08-29T20:58:34.303Z,69.41
2017-08-29T21:01:01.885Z,69.14
2017-08-29T21:03:29.471Z,69.39
2017-08-29T21:05:57.012Z,69.01
2017-08-29T21:08:24.823Z,68.75
2017-08-29T21:10:52.350Z,68.96
2017-08-29T21:13:19.915Z,68.80
2017-08-29T21:15:47.481Z,68.36
2017-08-29T21:18:15.054Z,68.12
2017-08-29T21:20:42.592Z,68.18
2017-08-29T21:23:10.232Z,68.22
2017-08-29T21:25:37.761Z,68.07
2017-08-29T21:28:05.339Z,68.50
2017-08-29T21:30:33.819Z,68.08
2017-08-29T21:33:03.300Z,68.50
2017-08-29T21:35:31.001Z,69.07
2017-08-29T21:37:59.234Z,68.87
2017-08-29T21:40:27.001Z,68.81
2017-08-29T21:42:54.738Z,68.94
2017-08-29T21:45:22.312Z,68.98
2017-08-29T21:47:49.821Z,69.22
2017-08-29T21:50:17.348Z,69.45
2017-08-29T21:52:44.921Z,69.45
2017-08-29T21:55:12.441Z,68.82
2017-08-29T21:57:39.956Z,68.23
2017-08-29T22:00:07.616Z,67.56
2017-08-29T22:02:35.136Z,67.87
2017-08-29T22:05:02.650Z,66.93
2017-08-29T22:07:30.223Z,66.83
2017-08-29T22:09:57.774Z,67.17
2017-08-29T22:12:25.320Z,66.57
2017-08-29T22:14:52.891Z,67.45
2017-08-29T22:17:20.427Z,67.38
2017-08-29T22:19:48.068Z,67.44
2017-08-29T22:22:15.788Z,68.14
2017-08-29T22:24:43.372Z,67.86
2017-08-29T22:27:11.135Z,67.10
2017-08-29T22:29:38.829Z,67.21
2017-08-29T22:32:06.399Z,67.63
2017-08-29T22:34:33.917Z,67.77
2017-08-29T22:37:01.457Z,68.41
2017-08-29T22:39:29.040Z,68.81
2017-08-29T22:41:56.560Z,68.98
2017-08-29T22:44:24.076Z,69.03
2017-08-29T22:46:51.811Z,69.06
2017-08-29T22:49:19.623Z,69.64
2017-08-29T22:51:47.152Z,70.20
2017-08-29T22:54:14.699Z,70.64
2017-08-29T22:56:42.226Z,70.17
2017-08-29T22:59:10.444Z,70.92
2017-08-29T23:01:38.040Z,71.39
2017-08-29T23:04:05.554Z,71.87
2017-08-29T23:06:33.061Z,71.69
2017-08-29T23:09:00.616Z,71.46
2017-08-29T23:11:28.482Z,71.26
2017-08-29T23:13:56.067Z,70.83
2017-08-29T23:16:23.633Z,70.73
2017-08-29T23:18:51.370Z,70.83
2017-08-29T23:21:18.910Z,70.83
2017-08-29T23:23:46.484Z,71.26
2017-08-29T23:26:14.242Z,71.55
2017-08-29T23:28:41.792Z,71.36
2017-08-29T23:31:09.363Z,71.34
2017-08-29T23:33:36.887Z,71.15
2017-08-29T23:36:04.710Z,71.63
2017-08-29T23:38:32.259Z,72.25
2017-08-29T23:41:00.025Z,71.33
2017-08-29T23:43:27.621Z,71.33
2017-08-29T23:45:55.204Z,71.90
2017-08-29T23:48:23.024Z,72.21
2017-08-29T23:50:50.646Z,72.47
2017-08-29T23:53:18.295Z,72.35
2017-08-29T23:55:45.866Z,71.98
2017-08-29T23:58:13.412Z,71.59
